sensor_id;sensor_type;location;lat;lon;timestamp;P1;durP1;ratioP1;P2;durP2;ratioP2
16037;SDS011;8123;50.906;6.172;2023-04-24T00:01:47;4.53;;;2.57;;
16037;SDS011;8123;50.906;6.172;2023-04-24T00:04:12;2.97;;;2.77;;
16037;SDS011;8123;50.906;6.172;2023-04-24T00:06:39;2.80;;;2.60;;
16037;SDS011;8123;50.906;6.172;2023-04-24T00:09:08;3.50;;;2.43;;
16037;SDS011;8123;50.906;6.172;2023-04-24T00:11:35;3.37;;;2.70;;
16037;SDS011;8123;50.906;6.172;2023-04-24T00:14:01;3.13;;;2.93;;
16037;SDS011;8123;50.906;6.172;2023-04-24T00:16:27;6.33;;;4.17;;
16037;SDS011;8123;50.906;6.172;2023-04-24T00:18:53;4.57;;;4.17;;
16037;SDS011;8123;50.906;6.172;2023-04-24T00:21:19;4.53;;;3.97;;
16037;SDS011;8123;50.906;6.172;2023-04-24T00:23:45;6.77;;;4.23;;
16037;SDS011;8123;50.906;6.172;2023-04-24T00:26:11;4.37;;;4.00;;
16037;SDS011;8123;50.906;6.172;2023-04-24T00:28:36;6.10;;;4.20;;
16037;SDS011;8123;50.906;6.172;2023-04-24T00:31:02;12.70;;;5.27;;
16037;SDS011;8123;50.906;6.172;2023-04-24T00:33:28;5.67;;;4.40;;
16037;SDS011;8123;50.906;6.172;2023-04-24T00:35:53;7.43;;;4.70;;
16037;SDS011;8123;50.906;6.172;2023-04-24T00:38:19;5.37;;;3.80;;
16037;SDS011;8123;50.906;6.172;2023-04-24T00:40:45;6.90;;;4.77;;
16037;SDS011;8123;50.906;6.172;2023-04-24T00:43:10;7.67;;;5.23;;
16037;SDS011;8123;50.906;6.172;2023-04-24T00:45:36;9.83;;;6.23;;
16037;SDS011;8123;50.906;6.172;2023-04-24T00:48:02;10.63;;;6.00;;
16037;SDS011;8123;50.906;6.172;2023-04-24T00:50:29;14.10;;;6.03;;
16037;SDS011;8123;50.906;6.172;2023-04-24T00:52:55;7.67;;;5.57;;
16037;SDS011;8123;50.906;6.172;2023-04-24T00:55:21;8.60;;;6.10;;
16037;SDS011;8123;50.906;6.172;2023-04-24T00:57:47;11.87;;;4.87;;
16037;SDS011;8123;50.906;6.172;2023-04-24T01:00:13;7.80;;;5.80;;
16037;SDS011;8123;50.906;6.172;2023-04-24T01:02:40;14.27;;;5.70;;
16037;SDS011;8123;50.906;6.172;2023-04-24T01:05:11;6.87;;;5.23;;
16037;SDS011;8123;50.906;6.172;2023-04-24T01:07:38;7.40;;;5.60;;
16037;SDS011;8123;50.906;6.172;2023-04-24T01:10:06;10.37;;;6.57;;
16037;SDS011;8123;50.906;6.172;2023-04-24T01:12:33;17.13;;;7.90;;
16037;SDS011;8123;50.906;6.172;2023-04-24T01:14:59;8.97;;;6.80;;
16037;SDS011;8123;50.906;6.172;2023-04-24T01:17:25;19.87;;;8.50;;
16037;SDS011;8123;50.906;6.172;2023-04-24T01:19:50;13.60;;;8.10;;
16037;SDS011;8123;50.906;6.172;2023-04-24T01:22:21;19.97;;;7.90;;
16037;SDS011;8123;50.906;6.172;2023-04-24T01:24:47;25.93;;;9.80;;
16037;SDS011;8123;50.906;6.172;2023-04-24T01:27:13;13.10;;;8.97;;
16037;SDS011;8123;50.906;6.172;2023-04-24T01:29:39;15.13;;;9.27;;
16037;SDS011;8123;50.906;6.172;2023-04-24T01:32:05;12.87;;;8.90;;
16037;SDS011;8123;50.906;6.172;2023-04-24T01:34:31;17.73;;;9.70;;
16037;SDS011;8123;50.906;6.172;2023-04-24T01:36:57;18.13;;;7.97;;
16037;SDS011;8123;50.906;6.172;2023-04-24T01:39:23;16.17;;;9.47;;
16037;SDS011;8123;50.906;6.172;2023-04-24T01:41:50;16.53;;;9.73;;
16037;SDS011;8123;50.906;6.172;2023-04-24T01:44:17;19.70;;;9.67;;
16037;SDS011;8123;50.906;6.172;2023-04-24T01:46:43;16.13;;;8.83;;
16037;SDS011;8123;50.906;6.172;2023-04-24T01:49:09;14.27;;;8.50;;
16037;SDS011;8123;50.906;6.172;2023-04-24T01:51:35;15.23;;;8.50;;
16037;SDS011;8123;50.906;6.172;2023-04-24T01:54:01;14.70;;;8.80;;
16037;SDS011;8123;50.906;6.172;2023-04-24T01:56:28;18.50;;;8.80;;
16037;SDS011;8123;50.906;6.172;2023-04-24T01:58:55;11.37;;;8.23;;
16037;SDS011;8123;50.906;6.172;2023-04-24T02:01:23;12.30;;;7.90;;
16037;SDS011;8123;50.906;6.172;2023-04-24T02:03:49;12.23;;;8.03;;
16037;SDS011;8123;50.906;6.172;2023-04-24T02:06:15;17.50;;;9.73;;
16037;SDS011;8123;50.906;6.172;2023-04-24T02:08:41;16.20;;;9.17;;
16037;SDS011;8123;50.906;6.172;2023-04-24T02:11:08;14.50;;;9.20;;
16037;SDS011;8123;50.906;6.172;2023-04-24T02:13:34;12.60;;;8.73;;
16037;SDS011;8123;50.906;6.172;2023-04-24T02:16:00;13.73;;;8.40;;
16037;SDS011;8123;50.906;6.172;2023-04-24T02:18:26;18.20;;;9.80;;
16037;SDS011;8123;50.906;6.172;2023-04-24T02:20:52;16.57;;;8.63;;
16037;SDS011;8123;50.906;6.172;2023-04-24T02:23:17;17.93;;;9.03;;
16037;SDS011;8123;50.906;6.172;2023-04-24T02:25:43;13.97;;;9.20;;
16037;SDS011;8123;50.906;6.172;2023-04-24T02:28:09;15.47;;;8.80;;
16037;SDS011;8123;50.906;6.172;2023-04-24T02:30:34;20.33;;;10.17;;
16037;SDS011;8123;50.906;6.172;2023-04-24T02:33:00;24.20;;;8.60;;
16037;SDS011;8123;50.906;6.172;2023-04-24T02:35:25;16.23;;;10.00;;
16037;SDS011;8123;50.906;6.172;2023-04-24T02:37:51;16.27;;;8.60;;
16037;SDS011;8123;50.906;6.172;2023-04-24T02:40:17;17.50;;;8.97;;
16037;SDS011;8123;50.906;6.172;2023-04-24T02:42:42;15.50;;;8.93;;
16037;SDS011;8123;50.906;6.172;2023-04-24T02:45:08;16.80;;;9.07;;
16037;SDS011;8123;50.906;6.172;2023-04-24T02:47:34;15.93;;;8.97;;
16037;SDS011;8123;50.906;6.172;2023-04-24T02:50:00;10.63;;;8.07;;
16037;SDS011;8123;50.906;6.172;2023-04-24T02:52:26;12.53;;;7.50;;
16037;SDS011;8123;50.906;6.172;2023-04-24T02:54:51;14.67;;;8.70;;
16037;SDS011;8123;50.906;6.172;2023-04-24T02:57:18;18.00;;;9.67;;
16037;SDS011;8123;50.906;6.172;2023-04-24T02:59:44;11.03;;;8.60;;
16037;SDS011;8123;50.906;6.172;2023-04-24T03:02:09;24.13;;;11.27;;
16037;SDS011;8123;50.906;6.172;2023-04-24T03:04:35;14.80;;;8.10;;
16037;SDS011;8123;50.906;6.172;2023-04-24T03:07:01;14.47;;;9.50;;
16037;SDS011;8123;50.906;6.172;2023-04-24T03:09:27;14.20;;;8.53;;
16037;SDS011;8123;50.906;6.172;2023-04-24T03:11:52;19.80;;;10.33;;
16037;SDS011;8123;50.906;6.172;2023-04-24T03:14:18;19.20;;;9.87;;
16037;SDS011;8123;50.906;6.172;2023-04-24T03:16:43;14.17;;;9.87;;
16037;SDS011;8123;50.906;6.172;2023-04-24T03:19:09;18.80;;;9.20;;
16037;SDS011;8123;50.906;6.172;2023-04-24T03:21:35;13.93;;;8.93;;
16037;SDS011;8123;50.906;6.172;2023-04-24T03:24:05;20.00;;;9.97;;
16037;SDS011;8123;50.906;6.172;2023-04-24T03:26:32;18.17;;;10.57;;
16037;SDS011;8123;50.906;6.172;2023-04-24T03:28:57;17.47;;;9.77;;
16037;SDS011;8123;50.906;6.172;2023-04-24T03:31:23;23.33;;;10.00;;
16037;SDS011;8123;50.906;6.172;2023-04-24T03:33:48;17.40;;;9.97;;
16037;SDS011;8123;50.906;6.172;2023-04-24T03:36:14;15.27;;;8.90;;
16037;SDS011;8123;50.906;6.172;2023-04-24T03:38:40;19.40;;;8.10;;
16037;SDS011;8123;50.906;6.172;2023-04-24T03:41:05;16.63;;;10.23;;
16037;SDS011;8123;50.906;6.172;2023-04-24T03:43:31;16.43;;;10.50;;
16037;SDS011;8123;50.906;6.172;2023-04-24T03:45:58;23.57;;;10.07;;
16037;SDS011;8123;50.906;6.172;2023-04-24T03:48:24;14.90;;;9.90;;
16037;SDS011;8123;50.906;6.172;2023-04-24T03:50:49;15.20;;;9.43;;
16037;SDS011;8123;50.906;6.172;2023-04-24T03:53:15;18.40;;;9.17;;
16037;SDS011;8123;50.906;6.172;2023-04-24T03:55:40;11.83;;;8.33;;
16037;SDS011;8123;50.906;6.172;2023-04-24T03:58:06;12.90;;;9.07;;
16037;SDS011;8123;50.906;6.172;2023-04-24T04:00:32;13.87;;;8.80;;
16037;SDS011;8123;50.906;6.172;2023-04-24T04:02:59;13.60;;;8.90;;
16037;SDS011;8123;50.906;6.172;2023-04-24T04:05:25;15.07;;;9.10;;
16037;SDS011;8123;50.906;6.172;2023-04-24T04:07:50;18.87;;;8.53;;
16037;SDS011;8123;50.906;6.172;2023-04-24T04:10:16;10.70;;;7.40;;
16037;SDS011;8123;50.906;6.172;2023-04-24T04:12:42;16.53;;;9.40;;
16037;SDS011;8123;50.906;6.172;2023-04-24T04:15:08;11.80;;;8.47;;
16037;SDS011;8123;50.906;6.172;2023-04-24T04:17:33;20.70;;;9.00;;
16037;SDS011;8123;50.906;6.172;2023-04-24T04:19:59;15.00;;;8.10;;
16037;SDS011;8123;50.906;6.172;2023-04-24T04:22:25;14.73;;;8.47;;
16037;SDS011;8123;50.906;6.172;2023-04-24T04:24:51;15.67;;;8.77;;
16037;SDS011;8123;50.906;6.172;2023-04-24T04:27:17;17.73;;;9.73;;
16037;SDS011;8123;50.906;6.172;2023-04-24T04:29:43;12.97;;;9.80;;
16037;SDS011;8123;50.906;6.172;2023-04-24T04:32:09;14.13;;;9.20;;
16037;SDS011;8123;50.906;6.172;2023-04-24T04:34:35;14.87;;;9.83;;
16037;SDS011;8123;50.906;6.172;2023-04-24T04:37:02;13.07;;;9.03;;
16037;SDS011;8123;50.906;6.172;2023-04-24T04:39:28;13.57;;;8.97;;
16037;SDS011;8123;50.906;6.172;2023-04-24T04:41:54;12.90;;;8.87;;
16037;SDS011;8123;50.906;6.172;2023-04-24T04:44:20;15.93;;;10.23;;
16037;SDS011;8123;50.906;6.172;2023-04-24T04:46:46;15.87;;;9.50;;
16037;SDS011;8123;50.906;6.172;2023-04-24T04:49:12;22.33;;;11.27;;
16037;SDS011;8123;50.906;6.172;2023-04-24T04:51:38;21.53;;;9.70;;
16037;SDS011;8123;50.906;6.172;2023-04-24T04:54:03;11.83;;;8.47;;
16037;SDS011;8123;50.906;6.172;2023-04-24T04:56:29;19.87;;;10.10;;
16037;SDS011;8123;50.906;6.172;2023-04-24T04:58:55;14.00;;;8.50;;
16037;SDS011;8123;50.906;6.172;2023-04-24T05:01:21;14.00;;;8.57;;
16037;SDS011;8123;50.906;6.172;2023-04-24T05:03:48;17.67;;;9.20;;
16037;SDS011;8123;50.906;6.172;2023-04-24T05:06:13;13.30;;;8.07;;
16037;SDS011;8123;50.906;6.172;2023-04-24T05:08:40;11.87;;;7.83;;
16037;SDS011;8123;50.906;6.172;2023-04-24T05:11:05;18.60;;;8.57;;
16037;SDS011;8123;50.906;6.172;2023-04-24T05:13:31;13.77;;;9.17;;
16037;SDS011;8123;50.906;6.172;2023-04-24T05:15:57;13.63;;;7.53;;
16037;SDS011;8123;50.906;6.172;2023-04-24T05:18:23;13.00;;;8.00;;
16037;SDS011;8123;50.906;6.172;2023-04-24T05:20:48;10.73;;;6.70;;
16037;SDS011;8123;50.906;6.172;2023-04-24T05:23:14;9.97;;;6.93;;
16037;SDS011;8123;50.906;6.172;2023-04-24T05:25:40;15.57;;;7.70;;
16037;SDS011;8123;50.906;6.172;2023-04-24T05:28:06;6.90;;;6.03;;
16037;SDS011;8123;50.906;6.172;2023-04-24T05:30:32;9.80;;;7.13;;
16037;SDS011;8123;50.906;6.172;2023-04-24T05:32:57;10.87;;;7.43;;
16037;SDS011;8123;50.906;6.172;2023-04-24T05:35:23;9.07;;;7.27;;
16037;SDS011;8123;50.906;6.172;2023-04-24T05:37:48;9.67;;;6.10;;
16037;SDS011;8123;50.906;6.172;2023-04-24T05:40:14;9.10;;;6.10;;
16037;SDS011;8123;50.906;6.172;2023-04-24T05:42:40;17.30;;;7.43;;
16037;SDS011;8123;50.906;6.172;2023-04-24T05:45:06;12.20;;;6.90;;
16037;SDS011;8123;50.906;6.172;2023-04-24T05:47:32;8.23;;;6.30;;
16037;SDS011;8123;50.906;6.172;2023-04-24T05:49:57;9.17;;;6.57;;
16037;SDS011;8123;50.906;6.172;2023-04-24T05:52:23;14.43;;;7.77;;
16037;SDS011;8123;50.906;6.172;2023-04-24T05:54:49;9.13;;;7.17;;
16037;SDS011;8123;50.906;6.172;2023-04-24T05:57:14;6.80;;;6.10;;
16037;SDS011;8123;50.906;6.172;2023-04-24T05:59:40;14.60;;;6.80;;
16037;SDS011;8123;50.906;6.172;2023-04-24T06:02:06;6.30;;;5.20;;
16037;SDS011;8123;50.906;6.172;2023-04-24T06:04:32;8.00;;;4.97;;
16037;SDS011;8123;50.906;6.172;2023-04-24T06:06:58;5.30;;;4.67;;
16037;SDS011;8123;50.906;6.172;2023-04-24T06:09:24;6.60;;;4.20;;
16037;SDS011;8123;50.906;6.172;2023-04-24T06:11:50;6.57;;;4.77;;
16037;SDS011;8123;50.906;6.172;2023-04-24T06:14:19;5.70;;;4.90;;
16037;SDS011;8123;50.906;6.172;2023-04-24T06:16:45;5.40;;;4.87;;
16037;SDS011;8123;50.906;6.172;2023-04-24T06:19:11;7.03;;;4.63;;
16037;SDS011;8123;50.906;6.172;2023-04-24T06:21:36;5.57;;;4.87;;
16037;SDS011;8123;50.906;6.172;2023-04-24T06:24:02;6.90;;;5.33;;
16037;SDS011;8123;50.906;6.172;2023-04-24T06:26:29;7.90;;;5.77;;
16037;SDS011;8123;50.906;6.172;2023-04-24T06:28:54;10.13;;;5.73;;
16037;SDS011;8123;50.906;6.172;2023-04-24T06:31:20;11.30;;;6.87;;
16037;SDS011;8123;50.906;6.172;2023-04-24T06:33:46;6.73;;;5.93;;
16037;SDS011;8123;50.906;6.172;2023-04-24T06:36:13;9.00;;;6.97;;
16037;SDS011;8123;50.906;6.172;2023-04-24T06:38:39;11.83;;;6.20;;
16037;SDS011;8123;50.906;6.172;2023-04-24T06:41:05;9.23;;;6.40;;
16037;SDS011;8123;50.906;6.172;2023-04-24T06:43:33;6.40;;;3.97;;
16037;SDS011;8123;50.906;6.172;2023-04-24T06:45:59;9.67;;;4.63;;
16037;SDS011;8123;50.906;6.172;2023-04-24T06:48:25;4.90;;;3.93;;
16037;SDS011;8123;50.906;6.172;2023-04-24T06:50:51;6.37;;;3.97;;
16037;SDS011;8123;50.906;6.172;2023-04-24T06:53:17;10.33;;;4.47;;
16037;SDS011;8123;50.906;6.172;2023-04-24T06:55:43;4.37;;;3.93;;
16037;SDS011;8123;50.906;6.172;2023-04-24T06:58:12;4.00;;;3.70;;
16037;SDS011;8123;50.906;6.172;2023-04-24T07:00:37;5.37;;;3.80;;
16037;SDS011;8123;50.906;6.172;2023-04-24T07:03:03;4.53;;;3.80;;
16037;SDS011;8123;50.906;6.172;2023-04-24T07:05:30;5.17;;;3.70;;
16037;SDS011;8123;50.906;6.172;2023-04-24T07:07:59;7.37;;;4.03;;
16037;SDS011;8123;50.906;6.172;2023-04-24T07:10:25;3.90;;;3.23;;
16037;SDS011;8123;50.906;6.172;2023-04-24T07:12:53;5.53;;;3.60;;
16037;SDS011;8123;50.906;6.172;2023-04-24T07:15:21;6.27;;;3.40;;
16037;SDS011;8123;50.906;6.172;2023-04-24T07:17:47;6.03;;;4.60;;
16037;SDS011;8123;50.906;6.172;2023-04-24T07:20:12;5.63;;;4.70;;
16037;SDS011;8123;50.906;6.172;2023-04-24T07:22:39;5.33;;;4.70;;
16037;SDS011;8123;50.906;6.172;2023-04-24T07:25:05;6.67;;;4.57;;
16037;SDS011;8123;50.906;6.172;2023-04-24T07:27:32;5.13;;;4.63;;
16037;SDS011;8123;50.906;6.172;2023-04-24T07:29:58;7.00;;;5.20;;
16037;SDS011;8123;50.906;6.172;2023-04-24T07:32:24;7.20;;;5.00;;
16037;SDS011;8123;50.906;6.172;2023-04-24T07:34:50;6.33;;;5.63;;
16037;SDS011;8123;50.906;6.172;2023-04-24T07:37:15;6.27;;;5.63;;
16037;SDS011;8123;50.906;6.172;2023-04-24T07:39:41;10.27;;;6.50;;
16037;SDS011;8123;50.906;6.172;2023-04-24T07:42:07;7.20;;;5.30;;
16037;SDS011;8123;50.906;6.172;2023-04-24T07:44:33;9.53;;;5.40;;
16037;SDS011;8123;50.906;6.172;2023-04-24T07:46:58;6.50;;;4.60;;
16037;SDS011;8123;50.906;6.172;2023-04-24T07:49:24;10.57;;;4.70;;
16037;SDS011;8123;50.906;6.172;2023-04-24T07:51:50;12.70;;;6.00;;
16037;SDS011;8123;50.906;6.172;2023-04-24T07:54:16;7.70;;;5.20;;
16037;SDS011;8123;50.906;6.172;2023-04-24T07:56:42;10.77;;;6.20;;
16037;SDS011;8123;50.906;6.172;2023-04-24T07:59:08;10.97;;;6.50;;
16037;SDS011;8123;50.906;6.172;2023-04-24T08:01:35;8.50;;;5.50;;
16037;SDS011;8123;50.906;6.172;2023-04-24T08:04:01;13.60;;;7.40;;
16037;SDS011;8123;50.906;6.172;2023-04-24T08:06:26;12.80;;;5.67;;
16037;SDS011;8123;50.906;6.172;2023-04-24T08:08:58;6.07;;;4.97;;
16037;SDS011;8123;50.906;6.172;2023-04-24T08:11:25;10.37;;;6.70;;
16037;SDS011;8123;50.906;6.172;2023-04-24T08:13:51;20.97;;;8.10;;
16037;SDS011;8123;50.906;6.172;2023-04-24T08:16:16;19.70;;;7.60;;
16037;SDS011;8123;50.906;6.172;2023-04-24T08:18:42;11.60;;;7.27;;
16037;SDS011;8123;50.906;6.172;2023-04-24T08:21:08;11.13;;;7.53;;
16037;SDS011;8123;50.906;6.172;2023-04-24T08:23:33;11.60;;;6.63;;
16037;SDS011;8123;50.906;6.172;2023-04-24T08:25:59;13.97;;;6.50;;
16037;SDS011;8123;50.906;6.172;2023-04-24T08:28:25;13.13;;;8.77;;
16037;SDS011;8123;50.906;6.172;2023-04-24T08:30:51;12.33;;;8.10;;
16037;SDS011;8123;50.906;6.172;2023-04-24T08:33:23;18.53;;;8.40;;
16037;SDS011;8123;50.906;6.172;2023-04-24T08:35:49;18.37;;;7.00;;
16037;SDS011;8123;50.906;6.172;2023-04-24T08:38:15;15.17;;;8.30;;
16037;SDS011;8123;50.906;6.172;2023-04-24T08:40:41;13.63;;;8.67;;
16037;SDS011;8123;50.906;6.172;2023-04-24T08:43:07;11.47;;;7.70;;
16037;SDS011;8123;50.906;6.172;2023-04-24T08:45:33;19.13;;;8.63;;
16037;SDS011;8123;50.906;6.172;2023-04-24T08:48:00;11.30;;;7.27;;
16037;SDS011;8123;50.906;6.172;2023-04-24T08:50:26;11.87;;;7.57;;
16037;SDS011;8123;50.906;6.172;2023-04-24T08:52:53;13.60;;;9.13;;
16037;SDS011;8123;50.906;6.172;2023-04-24T08:55:19;15.80;;;7.93;;
16037;SDS011;8123;50.906;6.172;2023-04-24T08:57:49;11.27;;;7.70;;
16037;SDS011;8123;50.906;6.172;2023-04-24T09:00:18;18.03;;;8.53;;
16037;SDS011;8123;50.906;6.172;2023-04-24T09:02:45;12.90;;;8.03;;
16037;SDS011;8123;50.906;6.172;2023-04-24T09:05:13;13.70;;;7.83;;
16037;SDS011;8123;50.906;6.172;2023-04-24T09:07:41;18.70;;;9.33;;
16037;SDS011;8123;50.906;6.172;2023-04-24T09:10:14;11.57;;;8.13;;
16037;SDS011;8123;50.906;6.172;2023-04-24T09:12:40;13.90;;;8.07;;
16037;SDS011;8123;50.906;6.172;2023-04-24T09:15:07;15.70;;;8.23;;
16037;SDS011;8123;50.906;6.172;2023-04-24T09:17:33;12.10;;;8.33;;
16037;SDS011;8123;50.906;6.172;2023-04-24T09:20:01;15.20;;;7.37;;
16037;SDS011;8123;50.906;6.172;2023-04-24T09:22:31;13.63;;;8.03;;
16037;SDS011;8123;50.906;6.172;2023-04-24T09:25:03;13.90;;;8.20;;
16037;SDS011;8123;50.906;6.172;2023-04-24T09:27:33;11.10;;;7.27;;
16037;SDS011;8123;50.906;6.172;2023-04-24T09:30:00;17.27;;;6.80;;
16037;SDS011;8123;50.906;6.172;2023-04-24T09:32:26;16.00;;;7.37;;
16037;SDS011;8123;50.906;6.172;2023-04-24T09:37:41;11.87;;;6.63;;
16037;SDS011;8123;50.906;6.172;2023-04-24T09:42:55;16.80;;;7.00;;
16037;SDS011;8123;50.906;6.172;2023-04-24T09:45:35;15.00;;;7.10;;
16037;SDS011;8123;50.906;6.172;2023-04-24T09:48:03;9.30;;;6.27;;
16037;SDS011;8123;50.906;6.172;2023-04-24T09:50:30;10.60;;;6.80;;
16037;SDS011;8123;50.906;6.172;2023-04-24T09:52:57;14.87;;;7.83;;
16037;SDS011;8123;50.906;6.172;2023-04-24T09:55:26;13.40;;;8.00;;
16037;SDS011;8123;50.906;6.172;2023-04-24T09:57:55;16.73;;;7.80;;
16037;SDS011;8123;50.906;6.172;2023-04-24T10:00:23;21.23;;;9.20;;
16037;SDS011;8123;50.906;6.172;2023-04-24T10:02:54;19.53;;;10.30;;
16037;SDS011;8123;50.906;6.172;2023-04-24T10:05:25;23.77;;;10.40;;
16037;SDS011;8123;50.906;6.172;2023-04-24T10:07:57;23.03;;;10.40;;
16037;SDS011;8123;50.906;6.172;2023-04-24T10:10:25;18.93;;;10.63;;
16037;SDS011;8123;50.906;6.172;2023-04-24T10:12:51;20.33;;;12.30;;
16037;SDS011;8123;50.906;6.172;2023-04-24T10:15:17;18.80;;;10.20;;
16037;SDS011;8123;50.906;6.172;2023-04-24T10:17:47;33.20;;;11.30;;
16037;SDS011;8123;50.906;6.172;2023-04-24T10:20:19;33.47;;;12.00;;
16037;SDS011;8123;50.906;6.172;2023-04-24T10:22:50;20.67;;;9.70;;
16037;SDS011;8123;50.906;6.172;2023-04-24T10:25:33;17.47;;;8.50;;
16037;SDS011;8123;50.906;6.172;2023-04-24T10:28:00;16.77;;;7.10;;
16037;SDS011;8123;50.906;6.172;2023-04-24T10:30:27;24.50;;;7.27;;
16037;SDS011;8123;50.906;6.172;2023-04-24T10:32:54;13.07;;;5.43;;
16037;SDS011;8123;50.906;6.172;2023-04-24T10:35:22;10.73;;;6.20;;
16037;SDS011;8123;50.906;6.172;2023-04-24T10:37:56;16.03;;;6.90;;
16037;SDS011;8123;50.906;6.172;2023-04-24T10:40:27;15.77;;;6.60;;
16037;SDS011;8123;50.906;6.172;2023-04-24T10:42:57;10.27;;;5.10;;
16037;SDS011;8123;50.906;6.172;2023-04-24T10:45:23;21.50;;;7.40;;
16037;SDS011;8123;50.906;6.172;2023-04-24T10:48:11;10.00;;;6.20;;
16037;SDS011;8123;50.906;6.172;2023-04-24T10:50:48;12.73;;;6.17;;
16037;SDS011;8123;50.906;6.172;2023-04-24T10:53:20;19.13;;;5.73;;
16037;SDS011;8123;50.906;6.172;2023-04-24T10:58:41;9.03;;;6.53;;
16037;SDS011;8123;50.906;6.172;2023-04-24T11:01:26;17.67;;;7.60;;
16037;SDS011;8123;50.906;6.172;2023-04-24T11:03:57;17.87;;;8.33;;
16037;SDS011;8123;50.906;6.172;2023-04-24T11:06:37;22.13;;;9.63;;
16037;SDS011;8123;50.906;6.172;2023-04-24T11:09:09;15.90;;;9.63;;
16037;SDS011;8123;50.906;6.172;2023-04-24T11:11:38;18.70;;;8.80;;
16037;SDS011;8123;50.906;6.172;2023-04-24T11:14:09;15.83;;;7.73;;
16037;SDS011;8123;50.906;6.172;2023-04-24T11:16:43;23.33;;;8.70;;
16037;SDS011;8123;50.906;6.172;2023-04-24T11:26:55;21.07;;;8.87;;
16037;SDS011;8123;50.906;6.172;2023-04-24T11:32:16;16.17;;;7.10;;
16037;SDS011;8123;50.906;6.172;2023-04-24T11:34:53;20.53;;;9.57;;
16037;SDS011;8123;50.906;6.172;2023-04-24T11:37:21;21.90;;;7.00;;
16037;SDS011;8123;50.906;6.172;2023-04-24T11:39:52;10.40;;;5.40;;
16037;SDS011;8123;50.906;6.172;2023-04-24T11:42:24;8.40;;;5.07;;
16037;SDS011;8123;50.906;6.172;2023-04-24T11:44:53;10.03;;;5.17;;
16037;SDS011;8123;50.906;6.172;2023-04-24T11:47:28;10.80;;;4.20;;
16037;SDS011;8123;50.906;6.172;2023-04-24T11:49:55;11.57;;;4.43;;
16037;SDS011;8123;50.906;6.172;2023-04-24T11:52:20;5.23;;;3.93;;
16037;SDS011;8123;50.906;6.172;2023-04-24T11:54:49;11.97;;;4.50;;
16037;SDS011;8123;50.906;6.172;2023-04-24T11:57:15;15.57;;;4.67;;
16037;SDS011;8123;50.906;6.172;2023-04-24T11:59:43;15.33;;;4.50;;
16037;SDS011;8123;50.906;6.172;2023-04-24T12:02:19;9.73;;;5.37;;
16037;SDS011;8123;50.906;6.172;2023-04-24T12:04:54;12.97;;;5.27;;
16037;SDS011;8123;50.906;6.172;2023-04-24T12:07:20;13.17;;;4.50;;
16037;SDS011;8123;50.906;6.172;2023-04-24T12:09:47;8.03;;;4.60;;
16037;SDS011;8123;50.906;6.172;2023-04-24T12:12:15;11.53;;;4.97;;
16037;SDS011;8123;50.906;6.172;2023-04-24T12:14:52;12.90;;;5.30;;
16037;SDS011;8123;50.906;6.172;2023-04-24T12:17:27;6.10;;;4.63;;
16037;SDS011;8123;50.906;6.172;2023-04-24T12:19:57;19.50;;;5.77;;
16037;SDS011;8123;50.906;6.172;2023-04-24T12:22:24;16.03;;;6.10;;
16037;SDS011;8123;50.906;6.172;2023-04-24T12:24:56;15.13;;;6.00;;
16037;SDS011;8123;50.906;6.172;2023-04-24T12:27:33;19.00;;;6.30;;
16037;SDS011;8123;50.906;6.172;2023-04-24T12:29:59;18.43;;;7.57;;
16037;SDS011;8123;50.906;6.172;2023-04-24T12:32:26;28.23;;;9.90;;
16037;SDS011;8123;50.906;6.172;2023-04-24T12:34:52;19.00;;;5.90;;
16037;SDS011;8123;50.906;6.172;2023-04-24T12:37:20;14.17;;;6.30;;
16037;SDS011;8123;50.906;6.172;2023-04-24T12:40:06;16.37;;;6.17;;
16037;SDS011;8123;50.906;6.172;2023-04-24T12:42:41;18.63;;;6.90;;
16037;SDS011;8123;50.906;6.172;2023-04-24T12:45:11;20.83;;;7.50;;
16037;SDS011;8123;50.906;6.172;2023-04-24T12:47:37;18.97;;;7.20;;
16037;SDS011;8123;50.906;6.172;2023-04-24T12:50:04;13.77;;;6.67;;
16037;SDS011;8123;50.906;6.172;2023-04-24T12:52:32;10.70;;;6.50;;
16037;SDS011;8123;50.906;6.172;2023-04-24T12:54:59;20.83;;;7.27;;
16037;SDS011;8123;50.906;6.172;2023-04-24T12:57:26;14.30;;;6.57;;
16037;SDS011;8123;50.906;6.172;2023-04-24T12:59:57;9.80;;;5.97;;
16037;SDS011;8123;50.906;6.172;2023-04-24T13:02:27;13.20;;;6.27;;
16037;SDS011;8123;50.906;6.172;2023-04-24T13:04:55;7.23;;;5.10;;
16037;SDS011;8123;50.906;6.172;2023-04-24T13:07:21;16.30;;;7.13;;
16037;SDS011;8123;50.906;6.172;2023-04-24T13:09:47;12.10;;;6.90;;
16037;SDS011;8123;50.906;6.172;2023-04-24T13:12:14;15.00;;;6.97;;
16037;SDS011;8123;50.906;6.172;2023-04-24T13:14:40;8.73;;;5.93;;
16037;SDS011;8123;50.906;6.172;2023-04-24T13:17:06;13.67;;;7.17;;
16037;SDS011;8123;50.906;6.172;2023-04-24T13:19:36;19.80;;;6.80;;
16037;SDS011;8123;50.906;6.172;2023-04-24T13:22:03;9.40;;;6.57;;
16037;SDS011;8123;50.906;6.172;2023-04-24T13:24:29;11.63;;;7.00;;
16037;SDS011;8123;50.906;6.172;2023-04-24T13:26:56;19.93;;;5.47;;
16037;SDS011;8123;50.906;6.172;2023-04-24T13:29:22;10.73;;;5.70;;
16037;SDS011;8123;50.906;6.172;2023-04-24T13:31:50;10.30;;;5.70;;
16037;SDS011;8123;50.906;6.172;2023-04-24T13:34:16;7.30;;;5.10;;
16037;SDS011;8123;50.906;6.172;2023-04-24T13:36:42;5.20;;;4.20;;
16037;SDS011;8123;50.906;6.172;2023-04-24T13:39:08;9.70;;;5.37;;
16037;SDS011;8123;50.906;6.172;2023-04-24T13:41:35;15.60;;;5.47;;
16037;SDS011;8123;50.906;6.172;2023-04-24T13:44:01;7.57;;;4.80;;
16037;SDS011;8123;50.906;6.172;2023-04-24T13:46:27;12.17;;;5.47;;
16037;SDS011;8123;50.906;6.172;2023-04-24T13:48:53;10.13;;;5.33;;
16037;SDS011;8123;50.906;6.172;2023-04-24T13:51:19;21.33;;;7.00;;
16037;SDS011;8123;50.906;6.172;2023-04-24T13:53:45;14.13;;;5.43;;
16037;SDS011;8123;50.906;6.172;2023-04-24T13:56:10;9.87;;;5.27;;
16037;SDS011;8123;50.906;6.172;2023-04-24T13:58:37;6.87;;;4.80;;
16037;SDS011;8123;50.906;6.172;2023-04-24T14:01:03;9.70;;;4.50;;
16037;SDS011;8123;50.906;6.172;2023-04-24T14:03:29;12.70;;;5.73;;
16037;SDS011;8123;50.906;6.172;2023-04-24T14:05:55;5.90;;;4.83;;
16037;SDS011;8123;50.906;6.172;2023-04-24T14:08:20;13.57;;;5.80;;
16037;SDS011;8123;50.906;6.172;2023-04-24T14:10:46;6.40;;;4.43;;
16037;SDS011;8123;50.906;6.172;2023-04-24T14:13:12;4.93;;;4.27;;
16037;SDS011;8123;50.906;6.172;2023-04-24T14:15:38;11.87;;;5.30;;
16037;SDS011;8123;50.906;6.172;2023-04-24T14:18:03;9.00;;;4.57;;
16037;SDS011;8123;50.906;6.172;2023-04-24T14:20:30;6.10;;;4.60;;
16037;SDS011;8123;50.906;6.172;2023-04-24T14:22:57;6.53;;;4.27;;
16037;SDS011;8123;50.906;6.172;2023-04-24T14:25:25;13.73;;;5.63;;
16037;SDS011;8123;50.906;6.172;2023-04-24T14:27:51;8.20;;;4.60;;
16037;SDS011;8123;50.906;6.172;2023-04-24T14:30:17;7.33;;;4.93;;
16037;SDS011;8123;50.906;6.172;2023-04-24T14:32:43;7.30;;;5.10;;
16037;SDS011;8123;50.906;6.172;2023-04-24T14:35:09;16.77;;;5.27;;
16037;SDS011;8123;50.906;6.172;2023-04-24T14:37:35;8.23;;;4.80;;
16037;SDS011;8123;50.906;6.172;2023-04-24T14:40:02;12.10;;;4.43;;
16037;SDS011;8123;50.906;6.172;2023-04-24T14:42:30;14.47;;;5.00;;
16037;SDS011;8123;50.906;6.172;2023-04-24T14:44:56;10.03;;;5.23;;
16037;SDS011;8123;50.906;6.172;2023-04-24T14:47:21;7.90;;;4.57;;
16037;SDS011;8123;50.906;6.172;2023-04-24T14:49:47;7.90;;;4.67;;
16037;SDS011;8123;50.906;6.172;2023-04-24T14:52:13;7.50;;;3.67;;
16037;SDS011;8123;50.906;6.172;2023-04-24T14:54:39;8.13;;;4.97;;
16037;SDS011;8123;50.906;6.172;2023-04-24T14:57:05;7.80;;;4.33;;
16037;SDS011;8123;50.906;6.172;2023-04-24T14:59:31;12.17;;;5.23;;
16037;SDS011;8123;50.906;6.172;2023-04-24T15:01:57;8.67;;;4.77;;
16037;SDS011;8123;50.906;6.172;2023-04-24T15:04:26;9.10;;;4.07;;
16037;SDS011;8123;50.906;6.172;2023-04-24T15:06:53;5.87;;;4.40;;
16037;SDS011;8123;50.906;6.172;2023-04-24T15:09:19;7.03;;;3.47;;